Time;durP1;ratioP1;P1;durP2;ratioP2;P2;SDS_P1;SDS_P2;PMS_P1;PMS_P2;Temp;Humidity;BMP_temperature;BMP_pressure;BME280_temperature;BME280_humidity;BME280_pressure;Samples;Min_cycle;Max_cycle;Signal;HPM_P1;HPM_P2
2022/07/31 00:02:28;;;;;;;4.50;2.30;;;19.10;96.80;;;;;;5056474;28;20059;-81
2022/07/31 00:04:54;;;;;;;8.77;2.50;;;19.10;96.90;;;;;;5062043;28;20464;-82
2022/07/31 00:07:21;;;;;;;3.33;2.03;;;19.10;97.00;;;;;;5064996;28;20049;-83
2022/07/31 00:09:48;;;;;;;5.85;2.42;;;19.00;97.10;;;;;;5048492;28;20052;-82
2022/07/31 00:12:16;;;;;;;7.13;2.20;;;19.00;97.20;;;;;;5063651;28;20578;-82
2022/07/31 00:14:43;;;;;;;6.47;2.13;;;19.00;97.30;;;;;;5048313;28;20503;-81
2022/07/31 00:17:10;;;;;;;7.15;2.60;;;19.00;97.30;;;;;;5049610;28;20090;-81
2022/07/31 00:19:38;;;;;;;4.72;2.42;;;19.00;97.50;;;;;;5042433;28;20053;-83
2022/07/31 00:22:05;;;;;;;4.32;2.13;;;18.90;97.50;;;;;;5056431;28;20049;-81
2022/07/31 00:24:32;;;;;;;5.57;2.40;;;18.90;97.60;;;;;;5039085;28;20052;-82
2022/07/31 00:26:59;;;;;;;7.32;2.90;;;18.90;97.80;;;;;;5079965;28;20032;-81
2022/07/31 00:29:26;;;;;;;7.07;2.90;;;18.90;98.20;;;;;;5048560;28;20505;-82
2022/07/31 00:31:53;;;;;;;5.90;2.78;;;18.90;98.00;;;;;;5056724;28;20052;-82
2022/07/31 00:34:19;;;;;;;6.45;2.15;;;18.80;98.10;;;;;;5055831;28;20049;-83
2022/07/31 00:36:48;;;;;;;6.25;2.70;;;18.80;98.20;;;;;;5038226;28;20500;-83
2022/07/31 00:39:15;;;;;;;5.38;2.58;;;18.90;98.30;;;;;;5038738;28;20520;-83
2022/07/31 00:41:43;;;;;;;4.88;2.55;;;18.80;98.30;;;;;;5056593;28;20492;-83
2022/07/31 00:44:11;;;;;;;3.17;2.10;;;18.80;98.40;;;;;;5038116;28;20091;-82
2022/07/31 00:46:38;;;;;;;4.47;2.50;;;18.80;98.40;;;;;;5056334;28;20094;-82
2022/07/31 00:49:07;;;;;;;3.33;2.30;;;18.80;98.50;;;;;;5021838;28;20106;-81
2022/07/31 00:51:34;;;;;;;9.05;3.03;;;18.70;98.50;;;;;;5037812;28;20095;-81
2022/07/31 00:54:02;;;;;;;5.15;2.63;;;18.70;98.60;;;;;;5038266;28;20110;-82
2022/07/31 00:56:29;;;;;;;5.18;2.72;;;18.70;98.70;;;;;;5037543;28;20049;-81
2022/07/31 00:58:56;;;;;;;7.15;2.40;;;18.70;98.70;;;;;;5055573;28;20128;-82
2022/07/31 01:01:23;;;;;;;8.98;3.03;;;18.70;98.70;;;;;;5038341;28;20512;-82
2022/07/31 01:03:50;;;;;;;4.95;2.28;;;18.70;98.70;;;;;;5055405;28;20363;-83
2022/07/31 01:06:17;;;;;;;6.50;2.85;;;18.60;98.70;;;;;;5055578;28;20118;-83
2022/07/31 01:08:44;;;;;;;4.43;2.53;;;18.60;98.90;;;;;;5038141;28;20064;-82
2022/07/31 01:11:17;;;;;;;5.15;2.60;;;18.60;98.90;;;;;;5037595;28;20060;-81
2022/07/31 01:13:50;;;;;;;7.10;3.25;;;18.60;99.00;;;;;;5037336;28;20053;-83
2022/07/31 01:16:18;;;;;;;5.55;2.85;;;18.50;99.10;;;;;;5055690;28;20049;-84
2022/07/31 01:18:47;;;;;;;5.20;2.40;;;18.50;99.40;;;;;;5054608;28;20144;-82
2022/07/31 01:21:20;;;;;;;6.93;2.55;;;18.50;99.20;;;;;;5039749;28;20055;-83
2022/07/31 01:24:12;;;;;;;6.68;2.85;;;18.50;99.30;;;;;;5055239;28;20460;-83
2022/07/31 01:26:48;;;;;;;6.85;2.80;;;18.50;99.40;;;;;;5054290;28;20088;-82
2022/07/31 01:29:22;;;;;;;4.32;2.58;;;18.60;99.40;;;;;;5035481;28;20045;-83
2022/07/31 01:31:53;;;;;;;6.60;2.95;;;18.60;99.40;;;;;;5017184;28;20096;-83
2022/07/31 01:34:27;;;;;;;4.63;2.88;;;18.50;99.40;;;;;;5017695;28;20107;-83
2022/07/31 01:37:02;;;;;;;5.47;2.85;;;18.50;99.40;;;;;;5018211;28;20049;-83
2022/07/31 01:39:33;;;;;;;3.65;2.50;;;18.50;99.60;;;;;;5017061;28;20041;-82
2022/07/31 01:42:03;;;;;;;4.78;2.95;;;18.50;99.60;;;;;;5022509;28;20049;-82
2022/07/31 01:44:37;;;;;;;5.13;2.60;;;18.50;99.60;;;;;;5055710;28;20056;-83
2022/07/31 01:47:05;;;;;;;4.75;2.50;;;18.50;99.70;;;;;;5040584;28;20065;-83
2022/07/31 01:49:33;;;;;;;6.45;3.00;;;18.50;99.70;;;;;;5079426;28;20029;-82
2022/07/31 01:52:02;;;;;;;5.30;3.00;;;18.40;99.80;;;;;;5056277;28;20052;-83
2022/07/31 01:54:31;;;;;;;4.65;2.83;;;18.40;99.80;;;;;;5054808;28;20075;-83
2022/07/31 01:56:59;;;;;;;6.95;3.13;;;18.40;99.80;;;;;;5037075;28;20049;-83
2022/07/31 01:59:28;;;;;;;5.63;3.17;;;18.50;99.90;;;;;;5037314;28;20049;-83
2022/07/31 02:01:57;;;;;;;6.45;2.83;;;18.40;99.90;;;;;;5054226;28;20052;-82
2022/07/31 02:04:25;;;;;;;4.95;2.90;;;18.40;99.90;;;;;;5037013;28;20080;-83
2022/07/31 02:06:53;;;;;;;5.15;3.35;;;18.40;99.90;;;;;;5037114;28;20132;-83
2022/07/31 02:09:22;;;;;;;5.50;3.08;;;18.40;99.90;;;;;;5036804;28;20052;-83
2022/07/31 02:11:50;;;;;;;5.25;2.50;;;18.40;99.90;;;;;;5036905;28;20057;-83
2022/07/31 02:14:19;;;;;;;6.22;2.60;;;18.30;99.90;;;;;;5036086;28;20098;-83
2022/07/31 02:16:48;;;;;;;5.82;2.60;;;18.40;99.90;;;;;;5036731;28;20057;-83
2022/07/31 02:19:19;;;;;;;4.68;3.05;;;18.30;99.90;;;;;;5037027;28;20088;-81
2022/07/31 02:21:46;;;;;;;7.35;3.03;;;18.30;99.90;;;;;;5053768;28;20429;-82
2022/07/31 02:24:13;;;;;;;7.57;3.15;;;18.30;99.90;;;;;;5054026;28;20052;-82
2022/07/31 02:26:41;;;;;;;4.07;2.80;;;18.30;99.90;;;;;;5035973;28;20501;-81
2022/07/31 02:29:11;;;;;;;3.25;2.70;;;18.30;99.90;;;;;;5053442;28;20055;-82
2022/07/31 02:31:43;;;;;;;5.38;3.10;;;18.30;99.90;;;;;;5054026;28;20485;-81
2022/07/31 02:34:10;;;;;;;5.85;2.83;;;18.30;99.90;;;;;;5036099;28;20052;-82
2022/07/31 02:36:39;;;;;;;6.68;3.03;;;18.30;99.90;;;;;;5053614;28;20085;-82
2022/07/31 02:39:07;;;;;;;6.50;3.20;;;18.30;99.90;;;;;;5016440;28;20060;-82
2022/07/31 02:41:36;;;;;;;4.45;2.90;;;18.20;99.90;;;;;;5034835;28;20476;-83
2022/07/31 02:44:03;;;;;;;4.57;3.03;;;18.30;99.90;;;;;;5016006;28;20103;-81
2022/07/31 02:46:31;;;;;;;4.72;3.17;;;18.20;99.90;;;;;;5033910;28;20068;-81
2022/07/31 02:48:59;;;;;;;4.97;3.10;;;18.20;99.90;;;;;;5033636;28;20053;-82
2022/07/31 02:51:26;;;;;;;7.22;3.38;;;18.20;99.90;;;;;;5016909;28;20064;-81
2022/07/31 02:53:55;;;;;;;5.47;3.03;;;18.20;99.90;;;;;;5036251;28;20492;-80
2022/07/31 02:56:23;;;;;;;5.72;3.10;;;18.20;99.90;;;;;;5053224;28;20071;-81
2022/07/31 02:58:50;;;;;;;4.55;2.95;;;18.30;99.90;;;;;;5035903;28;20132;-82
2022/07/31 03:01:17;;;;;;;5.60;3.35;;;18.20;99.90;;;;;;5053873;28;20057;-83
2022/07/31 03:03:44;;;;;;;5.40;2.70;;;18.20;99.90;;;;;;5035617;28;20049;-83
2022/07/31 03:06:11;;;;;;;5.20;2.38;;;18.20;99.90;;;;;;5054174;28;20481;-80
2022/07/31 03:08:38;;;;;;;5.10;3.00;;;18.20;99.90;;;;;;5062076;28;20067;-79
2022/07/31 03:11:06;;;;;;;4.30;3.10;;;18.20;99.90;;;;;;5053808;28;20501;-80
2022/07/31 03:13:35;;;;;;;3.75;2.78;;;18.30;99.90;;;;;;5035894;28;20519;-81
2022/07/31 03:16:03;;;;;;;4.20;3.15;;;18.20;99.90;;;;;;5036216;28;20052;-82
2022/07/31 03:18:31;;;;;;;3.47;2.33;;;18.30;99.90;;;;;;5053419;28;20060;-83
2022/07/31 03:20:58;;;;;;;4.50;2.88;;;18.20;99.90;;;;;;5056497;28;20041;-84
2022/07/31 03:23:27;;;;;;;5.07;2.72;;;18.20;99.90;;;;;;5055377;28;20052;-86
2022/07/31 03:25:54;;;;;;;4.22;2.60;;;18.20;99.90;;;;;;5035456;28;20056;-85
2022/07/31 03:28:23;;;;;;;6.43;2.65;;;18.20;99.90;;;;;;5054129;28;20107;-83
2022/07/31 03:30:52;;;;;;;6.90;2.90;;;18.20;99.90;;;;;;5053416;28;20500;-84
2022/07/31 03:33:20;;;;;;;6.32;2.63;;;18.10;99.90;;;;;;5035046;28;20132;-86
2022/07/31 03:35:47;;;;;;;4.68;2.80;;;18.10;99.90;;;;;;5053186;28;20045;-86
2022/07/31 03:38:14;;;;;;;5.38;2.63;;;18.00;99.90;;;;;;5035658;28;20382;-85
2022/07/31 03:40:41;;;;;;;6.88;3.22;;;18.00;99.90;;;;;;5036648;28;20485;-83
2022/07/31 03:43:08;;;;;;;6.60;2.88;;;18.00;99.90;;;;;;5035923;28;20053;-82
2022/07/31 03:45:38;;;;;;;9.23;3.17;;;18.00;99.90;;;;;;5052459;28;20053;-84
2022/07/31 03:48:07;;;;;;;4.47;2.83;;;17.90;99.90;;;;;;5035680;28;20118;-83
2022/07/31 03:50:35;;;;;;;3.65;2.47;;;17.90;99.90;;;;;;5053732;28;20409;-84
2022/07/31 03:53:04;;;;;;;4.43;2.80;;;17.80;99.90;;;;;;5034745;28;20049;-83
2022/07/31 03:55:32;;;;;;;5.18;2.65;;;17.80;99.90;;;;;;5035900;28;20103;-85
2022/07/31 03:58:00;;;;;;;3.13;2.30;;;17.80;99.90;;;;;;5035844;28;20061;-84
2022/07/31 04:00:27;;;;;;;4.82;3.10;;;17.80;99.90;;;;;;5035300;28;20412;-83
2022/07/31 04:02:57;;;;;;;7.65;2.70;;;17.70;99.90;;;;;;5037971;28;20053;-85
2022/07/31 04:05:24;;;;;;;6.75;2.88;;;17.70;99.90;;;;;;5057424;28;20049;-85
2022/07/31 04:07:51;;;;;;;3.50;2.50;;;17.70;99.90;;;;;;5038563;28;20057;-83
2022/07/31 04:10:18;;;;;;;4.95;3.33;;;17.60;99.90;;;;;;5056966;28;20048;-83
2022/07/31 04:12:45;;;;;;;7.70;3.42;;;17.60;99.90;;;;;;5039639;28;20057;-85
2022/07/31 04:15:12;;;;;;;10.05;3.72;;;17.60;99.90;;;;;;5056485;28;20049;-84
2022/07/31 04:17:39;;;;;;;5.65;3.40;;;17.60;99.90;;;;;;5038811;28;20106;-83
2022/07/31 04:20:09;;;;;;;6.55;3.20;;;17.60;99.90;;;;;;5039009;28;20098;-84
2022/07/31 04:22:35;;;;;;;4.82;3.30;;;17.60;99.90;;;;;;5056023;28;20128;-82
2022/07/31 04:25:03;;;;;;;5.55;3.03;;;17.60;99.90;;;;;;5038541;28;20045;-82
2022/07/31 04:27:29;;;;;;;4.60;2.90;;;17.60;99.90;;;;;;5038690;28;20106;-80
2022/07/31 04:29:57;;;;;;;4.00;3.05;;;17.60;99.90;;;;;;5039142;28;20395;-82
2022/07/31 04:32:24;;;;;;;4.28;3.35;;;17.60;99.90;;;;;;5061948;28;20059;-82
2022/07/31 04:34:51;;;;;;;7.45;3.28;;;17.70;99.90;;;;;;5044214;28;20107;-82
2022/07/31 04:37:19;;;;;;;6.50;3.08;;;17.70;99.90;;;;;;5038774;28;20099;-83
2022/07/31 04:39:46;;;;;;;4.50;3.25;;;17.70;99.90;;;;;;5038367;28;20048;-83
2022/07/31 04:42:14;;;;;;;5.28;2.80;;;17.80;99.90;;;;;;5037990;28;20053;-82
2022/07/31 04:44:41;;;;;;;4.75;3.50;;;17.80;99.90;;;;;;5056313;28;20045;-82
2022/07/31 04:47:08;;;;;;;7.70;3.35;;;17.90;99.90;;;;;;5056538;28;20091;-82
2022/07/31 04:49:35;;;;;;;3.97;2.92;;;17.90;99.90;;;;;;5038518;28;20570;-82
2022/07/31 04:52:02;;;;;;;7.30;2.70;;;17.90;99.90;;;;;;5046448;28;20071;-82
2022/07/31 04:54:30;;;;;;;8.48;3.78;;;17.90;99.90;;;;;;5049730;28;20053;-82
2022/07/31 04:56:57;;;;;;;5.88;3.05;;;17.90;99.90;;;;;;5047786;28;20578;-82
2022/07/31 04:59:25;;;;;;;6.28;3.08;;;18.00;99.90;;;;;;5050391;28;20067;-82
2022/07/31 05:01:52;;;;;;;4.05;3.13;;;18.00;99.90;;;;;;5047392;28;20053;-83
2022/07/31 05:04:19;;;;;;;5.40;2.78;;;18.00;99.90;;;;;;5055371;28;20512;-82
2022/07/31 05:06:48;;;;;;;6.07;3.55;;;18.00;99.90;;;;;;5056062;28;20052;-83
2022/07/31 05:09:22;;;;;;;4.95;3.30;;;18.10;99.90;;;;;;5038430;28;20412;-83
2022/07/31 05:11:52;;;;;;;4.72;3.17;;;18.10;99.90;;;;;;5054856;28;20049;-83
2022/07/31 05:14:21;;;;;;;7.57;3.40;;;18.20;99.90;;;;;;5036929;28;20174;-82
2022/07/31 05:16:48;;;;;;;8.48;3.55;;;18.20;99.90;;;;;;5037096;28;20132;-83
2022/07/31 05:19:16;;;;;;;4.38;3.20;;;18.20;99.90;;;;;;5055432;28;20136;-83
2022/07/31 05:21:44;;;;;;;7.30;3.17;;;18.30;99.90;;;;;;5042669;28;20040;-82
2022/07/31 05:24:11;;;;;;;4.13;3.30;;;18.30;99.90;;;;;;5055074;28;20087;-83
2022/07/31 05:26:38;;;;;;;4.57;3.20;;;18.30;99.90;;;;;;5054210;28;20056;-82
2022/07/31 05:29:07;;;;;;;6.50;3.47;;;18.40;99.90;;;;;;5054525;28;20053;-82
2022/07/31 05:31:33;;;;;;;6.80;3.70;;;18.40;99.90;;;;;;5036547;28;20045;-82
2022/07/31 05:34:00;;;;;;;4.75;3.20;;;18.40;99.90;;;;;;5037005;28;20135;-83
2022/07/31 05:36:27;;;;;;;5.00;4.00;;;18.50;99.90;;;;;;5055559;28;20057;-84
2022/07/31 05:38:54;;;;;;;9.52;4.00;;;18.50;99.90;;;;;;5037293;28;20143;-83
2022/07/31 05:41:21;;;;;;;4.65;3.35;;;18.50;99.90;;;;;;5037107;28;20045;-82
2022/07/31 05:43:48;;;;;;;5.55;4.13;;;18.50;99.90;;;;;;5037016;28;20057;-81
2022/07/31 05:46:16;;;;;;;5.43;3.78;;;18.50;99.90;;;;;;5054750;28;20083;-83
2022/07/31 05:48:44;;;;;;;4.80;3.45;;;18.50;99.90;;;;;;5060518;28;20059;-80
2022/07/31 05:51:11;;;;;;;4.82;3.88;;;18.50;99.90;;;;;;5040700;28;20045;-81
2022/07/31 05:53:39;;;;;;;7.20;4.30;;;18.60;99.90;;;;;;5060279;28;20029;-79
2022/07/31 05:56:06;;;;;;;7.50;4.13;;;18.60;99.90;;;;;;5066533;28;20075;-82
2022/07/31 05:58:33;;;;;;;4.72;3.90;;;18.70;99.90;;;;;;5055553;28;20049;-82
2022/07/31 06:01:01;;;;;;;9.40;3.90;;;18.80;99.90;;;;;;5054983;28;20095;-82
2022/07/31 06:03:34;;;;;;;9.70;4.47;;;18.80;99.90;;;;;;5054914;28;20048;-81
2022/07/31 06:06:02;;;;;;;6.97;4.30;;;19.00;99.90;;;;;;5054025;28;20067;-81
2022/07/31 06:08:29;;;;;;;7.07;4.15;;;19.00;99.90;;;;;;5037216;28;20068;-83
2022/07/31 06:10:56;;;;;;;7.95;4.53;;;19.10;99.90;;;;;;5037091;28;20045;-83
2022/07/31 06:13:24;;;;;;;5.60;3.72;;;19.20;99.90;;;;;;5035827;28;20053;-82
2022/07/31 06:15:51;;;;;;;7.05;4.22;;;19.20;99.90;;;;;;5037126;28;20091;-83
2022/07/31 06:18:19;;;;;;;6.43;4.20;;;19.30;99.90;;;;;;5029672;28;20061;-81
2022/07/31 06:20:47;;;;;;;6.55;3.75;;;19.40;99.90;;;;;;5023240;28;20090;-82
2022/07/31 06:23:14;;;;;;;11.48;3.97;;;19.50;99.90;;;;;;5024223;28;20053;-80
2022/07/31 06:25:41;;;;;;;6.30;3.75;;;19.50;99.90;;;;;;5025613;28;20067;-81
2022/07/31 06:28:08;;;;;;;5.05;3.80;;;19.60;99.90;;;;;;5052421;28;20052;-81
2022/07/31 06:30:35;;;;;;;6.03;3.70;;;19.70;99.90;;;;;;5033577;28;20095;-79
2022/07/31 06:33:02;;;;;;;6.50;3.85;;;19.80;99.90;;;;;;5049369;28;20486;-81
2022/07/31 06:35:28;;;;;;;7.57;3.90;;;19.90;99.90;;;;;;5041603;28;20049;-81
2022/07/31 06:37:57;;;;;;;5.95;4.10;;;20.10;99.80;;;;;;5032135;28;20108;-81
2022/07/31 06:40:24;;;;;;;5.95;4.10;;;20.10;99.60;;;;;;5033904;28;20103;-81
2022/07/31 06:42:51;;;;;;;6.13;3.90;;;20.30;99.40;;;;;;5037232;28;20437;-81
2022/07/31 06:45:18;;;;;;;6.97;4.90;;;20.30;99.30;;;;;;5031590;28;20481;-82
2022/07/31 06:47:44;;;;;;;9.18;4.18;;;20.40;99.10;;;;;;5017786;28;20099;-82
2022/07/31 06:50:11;;;;;;;8.20;4.22;;;20.40;99.00;;;;;;5016165;28;20053;-81
2022/07/31 06:52:38;;;;;;;5.38;3.40;;;20.50;99.00;;;;;;5034928;28;20049;-81
2022/07/31 06:55:08;;;;;;;8.43;4.63;;;20.50;99.00;;;;;;5051197;28;20087;-80
2022/07/31 06:57:35;;;;;;;8.00;4.18;;;20.50;99.00;;;;;;5035142;28;20049;-81
2022/07/31 07:00:02;;;;;;;12.32;4.05;;;20.60;99.00;;;;;;5018807;28;20049;-80
2022/07/31 07:02:29;;;;;;;8.68;4.00;;;20.60;99.00;;;;;;5013593;28;20056;-80
2022/07/31 07:04:56;;;;;;;7.03;4.40;;;20.70;99.00;;;;;;5014096;28;20049;-81
2022/07/31 07:07:23;;;;;;;8.73;4.53;;;20.70;98.90;;;;;;5032137;28;20186;-83
2022/07/31 07:09:49;;;;;;;10.27;4.88;;;20.80;98.70;;;;;;5033955;28;20099;-81
2022/07/31 07:12:18;;;;;;;6.97;4.45;;;20.80;98.60;;;;;;5016613;28;20049;-83
2022/07/31 07:14:45;;;;;;;6.43;4.68;;;20.80;98.50;;;;;;5048016;28;20405;-80
2022/07/31 07:17:11;;;;;;;6.55;4.60;;;20.80;98.60;;;;;;5024081;28;20068;-80
2022/07/31 07:19:41;;;;;;;7.82;4.05;;;20.80;98.60;;;;;;5014607;28;20119;-82
2022/07/31 07:22:08;;;;;;;6.97;4.13;;;20.80;98.60;;;;;;5021201;28;20045;-82
2022/07/31 07:24:34;;;;;;;5.47;4.43;;;20.90;98.60;;;;;;5036293;28;20517;-80
2022/07/31 07:27:01;;;;;;;8.52;4.40;;;20.90;98.50;;;;;;5027205;28;20060;-81
2022/07/31 07:29:30;;;;;;;8.05;4.47;;;21.00;98.40;;;;;;5013955;28;20115;-80
2022/07/31 07:31:58;;;;;;;5.75;4.40;;;21.00;98.30;;;;;;5022595;28;20052;-81
2022/07/31 07:34:25;;;;;;;6.10;4.07;;;21.10;98.40;;;;;;5024338;28;20049;-80
2022/07/31 07:36:52;;;;;;;5.97;4.30;;;21.10;98.30;;;;;;5035622;28;20053;-80
2022/07/31 07:39:19;;;;;;;7.25;4.60;;;21.20;98.20;;;;;;5035149;28;20045;-82
2022/07/31 07:41:46;;;;;;;7.22;4.90;;;21.30;98.10;;;;;;5028038;28;20046;-81
2022/07/31 07:44:13;;;;;;;21.50;5.25;;;21.40;98.00;;;;;;5028401;28;20099;-80
2022/07/31 07:46:41;;;;;;;6.65;4.32;;;21.50;97.90;;;;;;5028511;28;20057;-80
2022/07/31 07:49:08;;;;;;;7.20;4.63;;;21.50;97.70;;;;;;5038052;28;20452;-82
2022/07/31 07:51:35;;;;;;;8.50;4.90;;;21.70;97.70;;;;;;5030012;28;20098;-81
2022/07/31 07:54:02;;;;;;;7.57;4.68;;;21.90;97.50;;;;;;5025949;28;20049;-81
2022/07/31 07:56:29;;;;;;;7.55;4.80;;;22.30;97.30;;;;;;5031125;28;20092;-81
2022/07/31 07:58:55;;;;;;;5.30;4.15;;;22.90;96.90;;;;;;5033389;28;20056;-82
2022/07/31 08:01:22;;;;;;;7.25;4.72;;;23.50;96.30;;;;;;5030366;28;20053;-81
2022/07/31 08:03:51;;;;;;;5.80;4.32;;;23.70;95.60;;;;;;5043490;28;20049;-82
2022/07/31 08:06:17;;;;;;;10.77;4.13;;;23.80;95.20;;;;;;5039763;28;20067;-80
2022/07/31 08:08:44;;;;;;;6.28;4.68;;;23.60;95.10;;;;;;5028068;28;20045;-83
2022/07/31 08:11:11;;;;;;;7.05;4.70;;;23.90;95.00;;;;;;5040596;28;20045;-80
2022/07/31 08:13:38;;;;;;;8.73;5.25;;;23.90;94.80;;;;;;5035945;28;20115;-81
2022/07/31 08:16:05;;;;;;;9.32;5.20;;;23.90;94.90;;;;;;5036999;28;20049;-80
2022/07/31 08:18:32;;;;;;;8.02;5.10;;;23.80;94.90;;;;;;5050903;28;20159;-80
2022/07/31 08:21:00;;;;;;;8.07;5.15;;;23.60;95.00;;;;;;5044317;28;20069;-79
2022/07/31 08:23:27;;;;;;;8.05;5.18;;;23.60;95.10;;;;;;5035753;28;20566;-81
2022/07/31 08:25:54;;;;;;;8.68;5.30;;;23.50;95.30;;;;;;5023670;28;20053;-79
2022/07/31 08:28:23;;;;;;;10.13;4.97;;;23.30;95.50;;;;;;5037109;28;20040;-82
2022/07/31 08:30:50;;;;;;;6.63;4.57;;;23.30;95.80;;;;;;5020299;28;20041;-81
2022/07/31 08:33:17;;;;;;;7.18;4.63;;;23.40;95.80;;;;;;5026154;28;20045;-81
2022/07/31 08:35:44;;;;;;;9.93;4.97;;;23.50;95.90;;;;;;5067428;28;20025;-79
2022/07/31 08:38:12;;;;;;;9.23;5.03;;;23.50;95.90;;;;;;5046556;28;20523;-78
2022/07/31 08:40:39;;;;;;;7.50;5.10;;;23.50;95.90;;;;;;5039631;28;20497;-80
2022/07/31 08:43:06;;;;;;;6.22;5.20;;;23.50;95.90;;;;;;5042925;28;20045;-79
2022/07/31 08:45:36;;;;;;;7.47;4.80;;;23.50;96.40;;;;;;5029878;28;20049;-81
2022/07/31 08:48:06;;;;;;;9.30;5.20;;;23.40;96.70;;;;;;5034980;28;20115;-81
2022/07/31 08:50:34;;;;;;;9.30;5.40;;;23.30;97.30;;;;;;5019430;28;20045;-80
2022/07/31 08:53:03;;;;;;;11.18;6.45;;;23.10;97.80;;;;;;5024788;28;20400;-82
2022/07/31 08:55:32;;;;;;;8.10;6.43;;;22.80;98.30;;;;;;5038582;28;20045;-79
2022/07/31 08:57:59;;;;;;;9.02;6.07;;;22.60;99.20;;;;;;5017730;28;20053;-80
2022/07/31 09:00:27;;;;;;;10.57;5.38;;;22.50;99.60;;;;;;5036326;28;20515;-80
2022/07/31 09:02:54;;;;;;;12.93;6.57;;;22.40;99.90;;;;;;5036145;28;20049;-80
2022/07/31 09:05:23;;;;;;;10.15;6.05;;;22.40;99.90;;;;;;5035936;28;20493;-82
2022/07/31 09:07:50;;;;;;;10.07;7.60;;;22.30;99.90;;;;;;5042600;28;20049;-81
2022/07/31 09:10:23;;;;;;;10.50;6.82;;;22.10;99.90;;;;;;5018187;28;20555;-81
2022/07/31 09:12:52;;;;;;;11.38;7.63;;;22.00;99.90;;;;;;5037491;28;20053;-80
2022/07/31 09:15:24;;;;;;;12.60;7.68;;;21.90;99.90;;;;;;5016222;28;20057;-81
2022/07/31 09:17:51;;;;;;;11.00;7.72;;;21.80;99.90;;;;;;5033141;28;20465;-82
2022/07/31 09:20:20;;;;;;;9.07;7.13;;;21.70;99.90;;;;;;5042927;28;20107;-82
2022/07/31 09:22:48;;;;;;;11.10;7.95;;;21.50;99.90;;;;;;5031234;28;20484;-82
2022/07/31 09:25:17;;;;;;;12.00;8.15;;;21.50;99.90;;;;;;5015615;28;20049;-83
2022/07/31 09:27:46;;;;;;;12.33;8.73;;;21.40;99.90;;;;;;5016622;28;20064;-83
2022/07/31 09:30:15;;;;;;;12.43;9.13;;;21.30;99.90;;;;;;5028767;28;20056;-83
2022/07/31 09:32:44;;;;;;;15.10;9.48;;;21.30;99.90;;;;;;5031613;28;20107;-82
2022/07/31 09:35:14;;;;;;;16.58;9.30;;;21.30;99.90;;;;;;5031173;28;20409;-82
2022/07/31 09:37:41;;;;;;;15.82;9.93;;;21.20;99.90;;;;;;5028766;28;20076;-81
2022/07/31 09:40:09;;;;;;;13.93;9.93;;;21.20;99.90;;;;;;5040368;28;20045;-81
2022/07/31 09:42:38;;;;;;;14.05;10.30;;;21.10;99.90;;;;;;5029536;28;20072;-81
2022/07/31 09:45:20;;;;;;;15.68;10.65;;;21.00;99.90;;;;;;5024240;28;20065;-78
2022/07/31 09:47:47;;;;;;;16.10;10.07;;;21.00;99.90;;;;;;5032394;28;20559;-82
2022/07/31 09:50:14;;;;;;;15.18;9.63;;;20.80;99.90;;;;;;5023985;28;20138;-81
2022/07/31 09:52:41;;;;;;;16.95;10.65;;;20.80;99.90;;;;;;5017887;28;20045;-82
2022/07/31 09:55:11;;;;;;;14.27;10.00;;;20.70;99.90;;;;;;5030875;28;20487;-80
2022/07/31 09:57:38;;;;;;;12.00;10.03;;;20.60;99.90;;;;;;5050505;28;20620;-80
2022/07/31 10:00:07;;;;;;;13.63;11.05;;;20.50;99.90;;;;;;5016409;28;20703;-82
2022/07/31 10:02:38;;;;;;;14.95;10.75;;;20.40;99.90;;;;;;5018979;28;20091;-79
2022/07/31 10:05:07;;;;;;;19.20;11.75;;;20.40;99.90;;;;;;5042385;28;20049;-79
2022/07/31 10:07:35;;;;;;;17.17;10.85;;;20.30;99.90;;;;;;5032426;28;20068;-80
2022/07/31 10:10:04;;;;;;;16.80;11.77;;;20.30;99.90;;;;;;5031785;28;20128;-80
2022/07/31 10:12:33;;;;;;;14.02;11.70;;;20.40;99.90;;;;;;5019031;28;20122;-80
2022/07/31 10:15:06;;;;;;;17.63;12.32;;;20.50;99.90;;;;;;5024009;28;20061;-80
2022/07/31 10:17:38;;;;;;;16.63;11.52;;;20.50;99.90;;;;;;5024066;28;20413;-79
2022/07/31 10:20:09;;;;;;;16.25;11.88;;;20.60;99.90;;;;;;5032391;28;20091;-81
2022/07/31 10:22:42;;;;;;;18.92;11.70;;;20.60;99.90;;;;;;5034412;28;20041;-80
2022/07/31 10:25:13;;;;;;;22.08;10.98;;;20.50;99.90;;;;;;5014824;28;20505;-81
2022/07/31 10:27:40;;;;;;;;;;;20.60;99.90;;;;;;5017817;28;20416;-78
2022/07/31 10:30:10;;;;;;;14.40;12.15;;;20.50;99.90;;;;;;5052731;28;19921;-80
2022/07/31 10:32:37;;;;;;;16.53;11.47;;;20.50;99.90;;;;;;5025256;28;20103;-81
2022/07/31 10:35:06;;;;;;;15.55;12.05;;;20.40;99.90;;;;;;5013674;28;20053;-81
2022/07/31 10:37:39;;;;;;;17.95;12.75;;;20.30;99.90;;;;;;5031769;28;20045;-81
2022/07/31 10:40:21;;;;;;;17.77;13.05;;;20.20;99.90;;;;;;5039043;28;20045;-81
2022/07/31 10:42:52;;;;;;;16.45;13.18;;;20.10;99.90;;;;;;5016566;28;20077;-79
2022/07/31 10:45:19;;;;;;;18.90;12.88;;;20.10;99.90;;;;;;5035993;28;20049;-79
2022/07/31 10:47:58;;;;;;;18.50;14.05;;;20.10;99.90;;;;;;5032210;28;20497;-81
2022/07/31 10:50:28;;;;;;;17.02;13.23;;;20.10;99.90;;;;;;5031790;28;20053;-80
2022/07/31 10:53:07;;;;;;;18.63;14.02;;;20.00;99.90;;;;;;5037034;28;20060;-80
2022/07/31 10:55:34;;;;;;;18.00;14.38;;;19.90;99.90;;;;;;5038593;28;20067;-80
2022/07/31 10:58:07;;;;;;;22.52;15.77;;;19.90;99.90;;;;;;5014491;28;20072;-81
2022/07/31 11:00:35;;;;;;;19.40;14.15;;;19.80;99.90;;;;;;5036560;28;20052;-80
2022/07/31 11:03:15;;;;;;;20.10;15.35;;;19.80;99.90;;;;;;5015463;28;20081;-82
2022/07/31 11:05:53;;;;;;;23.63;16.13;;;19.70;99.90;;;;;;5023658;28;20049;-81
2022/07/31 11:08:22;;;;;;;21.73;16.98;;;19.60;99.90;;;;;;5038494;28;20041;-82
2022/07/31 11:10:50;;;;;;;22.50;16.27;;;19.70;99.90;;;;;;5036652;28;20049;-81
2022/07/31 11:13:17;;;;;;;19.17;15.18;;;19.60;99.90;;;;;;5020682;28;20096;-80
2022/07/31 11:15:46;;;;;;;22.38;17.75;;;19.60;99.90;;;;;;5056281;28;20045;-80
2022/07/31 11:18:14;;;;;;;20.15;15.73;;;19.60;99.90;;;;;;5046926;28;20052;-81
2022/07/31 11:20:45;;;;;;;17.40;14.18;;;19.70;99.90;;;;;;5026585;28;20065;-80
2022/07/31 11:23:14;;;;;;;25.45;15.52;;;19.60;99.90;;;;;;5037999;28;20048;-79
2022/07/31 11:25:43;;;;;;;25.83;16.75;;;19.60;99.90;;;;;;5018214;28;20179;-71
2022/07/31 11:28:12;;;;;;;24.47;17.37;;;19.60;99.90;;;;;;5034438;28;20421;-73
2022/07/31 11:30:53;;;;;;;21.70;16.35;;;19.50;99.90;;;;;;5034331;28;20092;-72
2022/07/31 11:33:31;;;;;;;23.98;17.67;;;19.40;99.90;;;;;;5017883;28;20493;-72
2022/07/31 11:36:06;;;;;;;23.90;17.15;;;19.40;99.90;;;;;;5017138;28;20045;-73
2022/07/31 11:38:33;;;;;;;28.33;18.30;;;19.30;99.90;;;;;;5016409;28;20053;-73
2022/07/31 11:41:01;;;;;;;23.73;17.85;;;19.20;99.90;;;;;;5039834;28;20107;-72
2022/07/31 11:43:28;;;;;;;33.00;18.27;;;19.20;99.90;;;;;;5018608;28;20091;-73
2022/07/31 11:45:56;;;;;;;25.85;16.00;;;19.20;99.90;;;;;;5019058;28;20460;-72
2022/07/31 11:48:30;;;;;;;19.92;15.73;;;19.20;99.90;;;;;;5037790;28;20053;-73
2022/07/31 11:50:57;;;;;;;18.75;15.07;;;19.20;99.90;;;;;;5040239;28;20494;-73
2022/07/31 11:53:24;;;;;;;17.02;14.10;;;19.20;99.90;;;;;;5016808;28;20045;-72
2022/07/31 11:55:53;;;;;;;19.35;15.27;;;19.10;99.90;;;;;;5016497;28;20509;-73
2022/07/31 11:58:23;;;;;;;23.38;15.98;;;19.10;99.90;;;;;;5015540;28;20100;-72
2022/07/31 12:00:51;;;;;;;22.20;16.90;;;19.00;99.90;;;;;;5035153;28;20049;-73
2022/07/31 12:03:22;;;;;;;26.35;18.10;;;18.90;99.90;;;;;;5017757;28;20555;-72
2022/07/31 12:05:51;;;;;;;;;;;18.90;99.90;;;;;;5033463;28;20091;-71
2022/07/31 12:08:19;;;;;;;22.67;17.75;;;18.80;99.90;;;;;;5017532;28;20349;-72
2022/07/31 12:10:47;;;;;;;26.63;18.40;;;18.80;99.90;;;;;;5019264;28;20092;-72
2022/07/31 12:13:16;;;;;;;23.02;16.30;;;18.80;99.90;;;;;;5034876;28;20482;-72
2022/07/31 12:15:56;;;;;;;27.23;18.75;;;18.70;99.90;;;;;;5033872;28;20498;-71
2022/07/31 12:18:23;;;;;;;24.67;17.60;;;18.80;99.90;;;;;;5021623;28;20502;-72
2022/07/31 12:20:58;;;;;;;21.25;14.75;;;18.70;99.90;;;;;;5019954;28;20049;-72
2022/07/31 12:23:25;;;;;;;20.90;16.13;;;18.80;99.90;;;;;;5032351;28;20041;-74
2022/07/31 12:25:53;;;;;;;21.10;14.93;;;18.70;99.90;;;;;;5034643;28;20103;-70
2022/07/31 12:28:19;;;;;;;23.65;16.45;;;18.70;99.90;;;;;;5033600;28;20081;-71
2022/07/31 12:30:57;;;;;;;22.17;15.00;;;18.70;99.90;;;;;;5033825;28;20103;-71
2022/07/31 12:33:26;;;;;;;21.90;16.23;;;18.70;99.90;;;;;;5016394;28;20095;-71
2022/07/31 12:35:53;;;;;;;19.40;15.15;;;18.70;99.90;;;;;;5015799;28;20501;-71
2022/07/31 12:38:23;;;;;;;19.33;15.15;;;18.70;99.90;;;;;;5019586;28;20067;-69
2022/07/31 12:41:11;;;;;;;17.67;13.95;;;18.70;99.90;;;;;;5034371;28;20452;-69
2022/07/31 12:43:38;;;;;;;20.10;14.80;;;18.70;99.90;;;;;;5013756;28;20053;-71
2022/07/31 12:46:05;;;;;;;24.80;16.20;;;18.70;99.90;;;;;;5033604;28;20046;-70
2022/07/31 12:48:34;;;;;;;20.50;15.35;;;18.70;99.90;;;;;;5015385;28;20045;-70